createdAt,value
2022-10-14T00:00:14.875Z,2.35
2022-10-14T00:01:21.551Z,2.20
2022-10-14T00:02:24.632Z,1.77
2022-10-14T00:03:27.554Z,2.20
2022-10-14T00:04:30.481Z,1.60
2022-10-14T00:05:33.374Z,1.77
2022-10-14T00:06:36.338Z,1.77
2022-10-14T00:07:39.663Z,2.05
2022-10-14T00:08:43.515Z,1.50
2022-10-14T00:09:46.869Z,2.10
2022-10-14T00:10:49.670Z,2.47
2022-10-14T00:11:52.478Z,2.08
2022-10-14T00:12:55.445Z,1.85
2022-10-14T00:14:02.436Z,1.60
2022-10-14T00:15:06.061Z,2.25
2022-10-14T00:16:20.653Z,2.45
2022-10-14T00:17:23.925Z,1.60
2022-10-14T00:18:26.816Z,1.50
2022-10-14T00:19:29.766Z,1.70
2022-10-14T00:20:32.846Z,1.30
2022-10-14T00:21:39.088Z,1.42
2022-10-14T00:22:41.913Z,1.70
2022-10-14T00:23:46.147Z,1.75
2022-10-14T00:24:48.947Z,1.65
2022-10-14T00:25:52.448Z,1.75
2022-10-14T00:26:55.514Z,1.67
2022-10-14T00:27:58.469Z,1.85
2022-10-14T00:29:02.429Z,1.55
2022-10-14T00:30:05.702Z,1.77
2022-10-14T00:31:08.485Z,1.98
2022-10-14T00:32:11.478Z,1.70
2022-10-14T00:33:14.419Z,1.62
2022-10-14T00:34:17.531Z,2.05
2022-10-14T00:35:20.369Z,1.62
2022-10-14T00:36:24.850Z,2.15
2022-10-14T00:37:33.289Z,2.28
2022-10-14T00:38:36.453Z,1.95
2022-10-14T00:39:39.261Z,1.80
2022-10-14T00:40:41.892Z,2.05
2022-10-14T00:41:45.171Z,1.45
2022-10-14T00:42:47.886Z,1.98
2022-10-14T00:44:07.527Z,2.42
2022-10-14T00:45:20.100Z,1.65
2022-10-14T00:46:23.839Z,1.62
2022-10-14T00:47:26.567Z,1.48
2022-10-14T00:48:29.257Z,2.22
2022-10-14T00:49:39.571Z,1.98
2022-10-14T00:50:45.373Z,1.27
2022-10-14T00:52:11.618Z,1.73
2022-10-14T00:53:15.566Z,1.60
2022-10-14T00:54:22.651Z,1.60
2022-10-14T00:55:26.248Z,1.65
2022-10-14T00:56:30.726Z,3.08
2022-10-14T00:57:35.331Z,1.73
2022-10-14T00:58:38.733Z,1.85
2022-10-14T00:59:42.051Z,1.40
2022-10-14T01:00:44.809Z,1.92
2022-10-14T01:01:47.852Z,1.50
2022-10-14T01:02:50.527Z,1.85
2022-10-14T01:03:53.168Z,1.60
2022-10-14T01:04:55.970Z,2.00
2022-10-14T01:06:39.698Z,2.28
2022-10-14T01:08:34.139Z,1.67
2022-10-14T01:09:48.021Z,1.40
2022-10-14T01:11:08.321Z,1.42
2022-10-14T01:12:28.478Z,1.80
2022-10-14T01:13:35.690Z,1.90
2022-10-14T01:15:04.904Z,1.85
2022-10-14T01:16:16.333Z,1.27
2022-10-14T01:17:30.558Z,1.50
2022-10-14T01:18:50.264Z,1.55
2022-10-14T01:20:33.938Z,1.48
2022-10-14T01:21:45.295Z,1.27
2022-10-14T01:23:09.696Z,1.92
2022-10-14T01:24:53.766Z,1.95
2022-10-14T01:26:06.852Z,1.48
2022-10-14T01:27:35.864Z,1.25
2022-10-14T01:29:05.651Z,1.40
2022-10-14T01:30:11.488Z,0.90
2022-10-14T01:31:20.375Z,1.30
2022-10-14T01:32:44.178Z,1.67
2022-10-14T01:33:52.651Z,1.75
2022-10-14T01:35:27.248Z,1.48
2022-10-14T01:36:37.223Z,1.70
2022-10-14T01:37:49.317Z,1.52
2022-10-14T01:38:58.895Z,1.30
2022-10-14T01:40:08.849Z,2.22
2022-10-14T01:41:18.416Z,2.10
2022-10-14T01:42:26.102Z,1.92
2022-10-14T01:43:31.855Z,2.05
2022-10-14T01:44:39.303Z,2.58
2022-10-14T01:45:45.329Z,1.90
2022-10-14T01:46:53.776Z,1.75
2022-10-14T01:47:58.813Z,1.42
2022-10-14T01:49:07.454Z,1.87
2022-10-14T01:50:16.088Z,2.15
2022-10-14T01:51:26.296Z,1.75
2022-10-14T01:52:34.564Z,2.30
2022-10-14T01:53:42.503Z,1.95
2022-10-14T01:54:48.092Z,1.55
2022-10-14T01:55:54.252Z,2.15
2022-10-14T01:57:00.293Z,1.77
2022-10-14T01:58:04.732Z,2.33
2022-10-14T01:59:10.010Z,2.10
2022-10-14T02:00:13.342Z,2.20
2022-10-14T02:01:16.179Z,1.70
2022-10-14T02:02:19.476Z,2.62
2022-10-14T02:03:22.289Z,1.75
2022-10-14T02:04:25.006Z,2.37
2022-10-14T02:05:54.255Z,1.92
2022-10-14T02:07:21.628Z,1.90
2022-10-14T02:08:24.280Z,2.03
2022-10-14T02:09:48.224Z,1.75
2022-10-14T02:11:06.000Z,1.62
2022-10-14T02:12:29.546Z,1.83
2022-10-14T02:13:32.113Z,1.70
2022-10-14T02:15:00.598Z,1.87
2022-10-14T02:16:21.936Z,1.77
2022-10-14T02:17:38.008Z,1.90
2022-10-14T02:18:51.812Z,1.70
2022-10-14T02:20:02.088Z,1.80
2022-10-14T02:21:32.933Z,1.70
2022-10-14T02:22:43.571Z,1.40
2022-10-14T02:23:51.457Z,2.12
2022-10-14T02:24:58.727Z,1.73
2022-10-14T02:26:03.507Z,1.83
2022-10-14T02:27:11.728Z,1.75
2022-10-14T02:28:19.600Z,2.33
2022-10-14T02:29:23.441Z,1.48
2022-10-14T02:30:28.851Z,1.67
2022-10-14T02:31:34.367Z,1.75
2022-10-14T02:32:38.915Z,1.77
2022-10-14T02:33:45.394Z,1.48
2022-10-14T02:34:52.353Z,1.83
2022-10-14T02:35:56.699Z,1.73
2022-10-14T02:37:00.455Z,1.45
2022-10-14T02:38:04.196Z,1.70
2022-10-14T02:39:10.535Z,1.73
2022-10-14T02:40:36.274Z,1.92
2022-10-14T02:41:39.528Z,1.55
2022-10-14T02:42:42.387Z,1.85
2022-10-14T02:43:46.629Z,1.75
2022-10-14T02:44:59.095Z,2.22
2022-10-14T02:46:04.852Z,2.58
2022-10-14T02:47:07.459Z,1.52
2022-10-14T02:48:11.087Z,1.80
2022-10-14T02:49:14.210Z,2.22
2022-10-14T02:50:19.231Z,1.90
2022-10-14T02:51:21.817Z,1.80
2022-10-14T02:52:24.792Z,1.77
2022-10-14T02:53:27.608Z,2.33
2022-10-14T02:54:30.856Z,1.70
2022-10-14T02:55:33.613Z,1.30
2022-10-14T02:56:36.295Z,1.80
2022-10-14T02:57:39.012Z,2.08
2022-10-14T02:58:41.891Z,1.60
2022-10-14T02:59:44.575Z,2.80
2022-10-14T03:00:49.774Z,1.70
2022-10-14T03:01:52.452Z,2.10
2022-10-14T03:02:55.173Z,1.58
2022-10-14T03:03:57.933Z,1.83
2022-10-14T03:05:00.585Z,1.33
2022-10-14T03:06:03.301Z,1.65
2022-10-14T03:07:05.978Z,1.50
2022-10-14T03:08:08.611Z,1.62
2022-10-14T03:09:11.262Z,1.87
2022-10-14T03:10:14.132Z,1.80
2022-10-14T03:11:16.902Z,1.77
2022-10-14T03:12:20.155Z,1.87
2022-10-14T03:13:23.218Z,1.87
2022-10-14T03:14:25.890Z,2.20
2022-10-14T03:15:28.612Z,2.97
2022-10-14T03:16:31.210Z,2.17
2022-10-14T03:17:33.933Z,1.75
2022-10-14T03:18:36.729Z,2.53
2022-10-14T03:19:39.329Z,1.75
2022-10-14T03:20:44.772Z,1.50
2022-10-14T03:21:49.211Z,1.67
2022-10-14T03:22:52.349Z,1.65
2022-10-14T03:23:54.968Z,1.80
2022-10-14T03:24:57.655Z,1.80
2022-10-14T03:26:00.409Z,1.77
2022-10-14T03:27:03.308Z,1.70
2022-10-14T03:28:05.977Z,2.65
2022-10-14T03:29:08.612Z,2.58
2022-10-14T03:30:11.660Z,1.52
2022-10-14T03:31:14.655Z,1.65
2022-10-14T03:32:17.334Z,1.50
2022-10-14T03:33:20.731Z,1.62
2022-10-14T03:34:23.406Z,1.75
2022-10-14T03:35:26.117Z,1.42
2022-10-14T03:36:28.675Z,2.10
2022-10-14T03:37:31.380Z,1.55
2022-10-14T03:38:34.417Z,2.45
2022-10-14T03:39:37.095Z,1.83
2022-10-14T03:40:39.769Z,2.22
2022-10-14T03:41:42.515Z,1.80
2022-10-14T03:42:45.111Z,1.85
2022-10-14T03:43:48.030Z,2.33
2022-10-14T03:44:50.739Z,1.70
2022-10-14T03:45:53.314Z,2.00
2022-10-14T03:46:56.203Z,1.55
2022-10-14T03:47:58.833Z,1.62
2022-10-14T03:49:01.545Z,2.53
2022-10-14T03:50:05.514Z,2.17
2022-10-14T03:51:08.370Z,1.60
2022-10-14T03:52:11.172Z,1.87
2022-10-14T03:53:13.862Z,1.50
2022-10-14T03:54:16.529Z,1.90
2022-10-14T03:55:19.507Z,1.40
2022-10-14T03:56:22.455Z,3.10
2022-10-14T03:57:25.258Z,2.10
2022-10-14T03:58:28.127Z,1.87
2022-10-14T03:59:30.913Z,2.00
2022-10-14T04:00:36.008Z,1.58
2022-10-14T04:01:38.689Z,1.52
2022-10-14T04:02:42.164Z,1.70
2022-10-14T04:03:46.798Z,2.00
2022-10-14T04:04:49.505Z,2.03
2022-10-14T04:05:52.094Z,1.85
2022-10-14T04:06:55.256Z,1.95
2022-10-14T04:07:58.169Z,2.00
2022-10-14T04:09:00.816Z,1.85
2022-10-14T04:10:03.854Z,1.92
2022-10-14T04:11:06.968Z,2.08
2022-10-14T04:12:09.972Z,2.37
2022-10-14T04:13:12.568Z,1.75
2022-10-14T04:14:15.315Z,2.12
2022-10-14T04:15:17.972Z,2.53
2022-10-14T04:16:20.719Z,2.22
2022-10-14T04:17:26.596Z,1.60
2022-10-14T04:18:29.363Z,2.15
2022-10-14T04:19:32.342Z,1.90
2022-10-14T04:20:35.061Z,2.22
2022-10-14T04:21:43.070Z,1.48
2022-10-14T04:22:45.938Z,1.80
2022-10-14T04:23:48.592Z,1.42
2022-10-14T04:24:51.349Z,1.95
2022-10-14T04:25:53.870Z,1.45
2022-10-14T04:26:56.670Z,1.85
2022-10-14T04:27:59.474Z,1.58
2022-10-14T04:29:02.275Z,1.73
2022-10-14T04:30:05.903Z,2.25
2022-10-14T04:31:08.707Z,1.80
2022-10-14T04:32:11.757Z,2.35
2022-10-14T04:33:14.359Z,2.22
2022-10-14T04:34:17.069Z,1.45
2022-10-14T04:35:19.822Z,1.85
2022-10-14T04:36:23.156Z,1.37
2022-10-14T04:37:26.019Z,1.65
2022-10-14T04:38:29.516Z,1.90
2022-10-14T04:39:32.417Z,1.40
2022-10-14T04:40:35.161Z,1.83
2022-10-14T04:41:37.854Z,1.75
2022-10-14T04:42:40.591Z,1.98
2022-10-14T04:43:43.062Z,2.03
2022-10-14T04:44:45.662Z,2.00
2022-10-14T04:45:49.182Z,1.85
2022-10-14T04:46:51.767Z,2.20
2022-10-14T04:47:54.430Z,1.87
2022-10-14T04:48:57.321Z,1.52
2022-10-14T04:50:00.351Z,2.00
2022-10-14T04:51:03.106Z,2.12
2022-10-14T04:52:05.786Z,1.92
2022-10-14T04:53:13.243Z,1.73
2022-10-14T04:54:16.657Z,2.47
2022-10-14T04:55:19.384Z,1.67
2022-10-14T04:56:22.045Z,1.95
2022-10-14T04:57:24.643Z,1.40
2022-10-14T04:58:27.206Z,1.60
2022-10-14T04:59:29.915Z,2.45
2022-10-14T05:00:32.690Z,1.90
2022-10-14T05:01:35.308Z,1.40
2022-10-14T05:02:38.188Z,1.80
2022-10-14T05:03:40.846Z,1.20
2022-10-14T05:04:43.510Z,1.55
2022-10-14T05:05:46.371Z,1.67
2022-10-14T05:06:49.063Z,2.20
2022-10-14T05:07:51.752Z,1.33
2022-10-14T05:08:54.523Z,1.60
2022-10-14T05:09:57.366Z,1.75
2022-10-14T05:11:00.453Z,1.58
2022-10-14T05:12:03.079Z,1.70
2022-10-14T05:13:05.846Z,1.83
2022-10-14T05:14:08.717Z,1.37
2022-10-14T05:15:12.024Z,2.12
2022-10-14T05:16:14.669Z,1.30
2022-10-14T05:17:17.365Z,1.45
2022-10-14T05:18:20.182Z,1.60
2022-10-14T05:19:22.905Z,2.17
2022-10-14T05:20:25.573Z,1.50
2022-10-14T05:21:28.160Z,1.85
2022-10-14T05:22:30.827Z,1.92
2022-10-14T05:23:33.645Z,1.60
2022-10-14T05:24:36.622Z,1.85
2022-10-14T05:25:39.327Z,1.45
2022-10-14T05:26:42.483Z,2.05
2022-10-14T05:27:45.339Z,1.98
2022-10-14T05:28:48.048Z,1.80
2022-10-14T05:29:50.852Z,1.83
2022-10-14T05:30:53.513Z,1.98
2022-10-14T05:31:56.096Z,1.80
2022-10-14T05:32:59.021Z,2.45
2022-10-14T05:34:01.594Z,1.30
2022-10-14T05:35:04.703Z,2.03
2022-10-14T05:36:07.819Z,2.00
2022-10-14T05:37:10.749Z,1.62
2022-10-14T05:38:13.795Z,2.03
2022-10-14T05:39:16.453Z,2.40
2022-10-14T05:40:19.070Z,2.33
2022-10-14T05:41:21.973Z,1.45
2022-10-14T05:42:25.225Z,1.92
2022-10-14T05:43:32.020Z,2.47
2022-10-14T05:44:35.309Z,2.20
2022-10-14T05:45:37.995Z,2.83
2022-10-14T05:46:40.704Z,1.95
2022-10-14T05:47:44.575Z,1.70
2022-10-14T05:48:47.258Z,1.92
2022-10-14T05:49:49.968Z,2.28
2022-10-14T05:50:52.783Z,2.55
2022-10-14T05:51:55.581Z,1.90
2022-10-14T05:52:58.382Z,2.20
2022-10-14T05:54:01.139Z,1.90
2022-10-14T05:55:03.964Z,2.12
2022-10-14T05:56:09.228Z,2.12
2022-10-14T05:57:11.934Z,2.60
2022-10-14T05:58:14.665Z,2.58
2022-10-14T05:59:17.337Z,2.40
2022-10-14T06:00:24.827Z,2.10
2022-10-14T06:01:28.264Z,2.65
2022-10-14T06:02:31.585Z,2.80
2022-10-14T06:03:34.640Z,2.53
2022-10-14T06:04:41.160Z,2.20
2022-10-14T06:05:45.541Z,2.35
2022-10-14T06:06:48.284Z,2.50
2022-10-14T06:07:50.941Z,3.17
2022-10-14T06:08:55.818Z,2.20
2022-10-14T06:09:58.586Z,2.92
2022-10-14T06:11:04.563Z,2.62
2022-10-14T06:12:07.642Z,3.25
2022-10-14T06:13:10.378Z,2.22
2022-10-14T06:14:13.247Z,3.08
2022-10-14T06:15:15.885Z,3.17
2022-10-14T06:16:18.699Z,2.72
2022-10-14T06:17:21.405Z,2.85
2022-10-14T06:18:24.123Z,2.53
2022-10-14T06:19:27.099Z,2.70
2022-10-14T06:20:29.780Z,2.92
2022-10-14T06:21:32.403Z,2.92
2022-10-14T06:22:35.090Z,3.03
2022-10-14T06:23:37.905Z,2.90
2022-10-14T06:24:40.668Z,2.78
2022-10-14T06:25:43.392Z,2.15
2022-10-14T06:26:46.166Z,3.03
2022-10-14T06:27:48.762Z,2.75
2022-10-14T06:28:51.595Z,2.70
2022-10-14T06:29:54.588Z,3.20
2022-10-14T06:30:57.348Z,2.67
2022-10-14T06:32:00.061Z,2.78
2022-10-14T06:33:02.670Z,2.72
2022-10-14T06:34:08.081Z,3.65
2022-10-14T06:35:10.992Z,2.80
2022-10-14T06:36:13.584Z,2.53
2022-10-14T06:37:16.292Z,2.70
2022-10-14T06:38:19.188Z,2.78
2022-10-14T06:39:21.766Z,2.12
2022-10-14T06:40:24.983Z,2.78
2022-10-14T06:41:27.609Z,2.55
2022-10-14T06:42:30.208Z,1.87
2022-10-14T06:43:32.849Z,2.33
2022-10-14T06:44:35.494Z,2.37
2022-10-14T06:45:38.159Z,2.62
2022-10-14T06:46:40.997Z,2.42
2022-10-14T06:47:43.883Z,2.20
2022-10-14T06:48:50.180Z,2.45
2022-10-14T06:49:53.516Z,2.17
2022-10-14T06:51:00.295Z,2.97
2022-10-14T06:52:02.952Z,3.12
2022-10-14T06:53:05.702Z,2.12
2022-10-14T06:54:08.620Z,2.78
2022-10-14T06:55:11.256Z,2.87
2022-10-14T06:56:13.963Z,2.75
2022-10-14T06:57:17.019Z,2.70
2022-10-14T06:58:19.596Z,2.95
2022-10-14T06:59:22.667Z,2.47
2022-10-14T07:00:25.509Z,2.80
2022-10-14T07:01:28.273Z,2.40
2022-10-14T07:02:30.929Z,2.50
2022-10-14T07:03:38.975Z,2.60
2022-10-14T07:04:41.607Z,2.83
2022-10-14T07:05:44.272Z,2.08
2022-10-14T07:06:47.782Z,2.95
2022-10-14T07:07:50.477Z,3.10
2022-10-14T07:08:53.350Z,2.30
2022-10-14T07:09:58.404Z,2.15
2022-10-14T07:11:01.384Z,2.55
2022-10-14T07:12:04.440Z,2.87
2022-10-14T07:13:06.982Z,2.50
2022-10-14T07:14:10.476Z,2.40
2022-10-14T07:15:13.141Z,2.33
2022-10-14T07:16:15.745Z,2.47
2022-10-14T07:17:19.073Z,2.42
2022-10-14T07:18:24.030Z,2.10
2022-10-14T07:19:26.777Z,2.15
2022-10-14T07:20:29.420Z,2.90
2022-10-14T07:21:32.074Z,2.80
2022-10-14T07:22:39.013Z,2.15
2022-10-14T07:23:41.952Z,2.00
2022-10-14T07:24:45.322Z,2.20
2022-10-14T07:25:48.090Z,2.28
2022-10-14T07:26:50.612Z,2.35
2022-10-14T07:27:54.236Z,2.25
2022-10-14T07:28:57.508Z,2.25
2022-10-14T07:30:01.808Z,2.60
2022-10-14T07:31:07.520Z,2.05
2022-10-14T07:32:10.169Z,2.40
2022-10-14T07:33:12.721Z,2.28
2022-10-14T07:34:15.414Z,2.42
2022-10-14T07:35:19.280Z,2.85
2022-10-14T07:36:22.750Z,2.92
2022-10-14T07:37:25.760Z,2.90
2022-10-14T07:38:28.627Z,2.78
2022-10-14T07:39:31.335Z,2.37
2022-10-14T07:40:33.980Z,2.60
2022-10-14T07:41:37.002Z,2.42
2022-10-14T07:42:40.227Z,2.37
2022-10-14T07:43:54.872Z,2.58
2022-10-14T07:44:58.312Z,2.53
2022-10-14T07:46:08.385Z,2.90
2022-10-14T07:47:11.748Z,2.28
2022-10-14T07:48:17.067Z,2.60
2022-10-14T07:49:23.623Z,2.70
2022-10-14T07:50:26.224Z,2.45
2022-10-14T07:51:28.898Z,3.28
2022-10-14T07:52:31.606Z,3.10
2022-10-14T07:53:35.732Z,3.17
2022-10-14T07:54:38.421Z,2.95
2022-10-14T07:55:52.470Z,3.30
2022-10-14T07:56:55.260Z,3.58
2022-10-14T07:57:58.004Z,3.62
2022-10-14T07:59:00.802Z,3.20
2022-10-14T08:00:04.270Z,2.80
2022-10-14T08:01:06.952Z,3.28
2022-10-14T08:02:12.038Z,3.25
2022-10-14T08:03:14.926Z,3.03
2022-10-14T08:04:18.726Z,2.90
2022-10-14T08:05:38.560Z,2.97
2022-10-14T08:06:42.709Z,3.12
2022-10-14T08:07:45.244Z,3.80
2022-10-14T08:08:48.609Z,4.30
2022-10-14T08:09:53.895Z,3.20
2022-10-14T08:11:06.685Z,3.12
2022-10-14T08:12:09.373Z,3.50
2022-10-14T08:13:12.042Z,3.05
2022-10-14T08:14:15.022Z,2.60
2022-10-14T08:15:17.883Z,3.22
2022-10-14T08:16:24.054Z,3.00
2022-10-14T08:17:27.141Z,2.97
2022-10-14T08:18:30.172Z,3.00
2022-10-14T08:19:32.826Z,3.40
2022-10-14T08:20:35.764Z,3.83
2022-10-14T08:21:38.662Z,2.80
2022-10-14T08:22:41.337Z,2.87
2022-10-14T08:23:43.994Z,3.45
2022-10-14T08:24:47.135Z,2.90
2022-10-14T08:25:50.036Z,3.03
2022-10-14T08:26:58.282Z,3.53
2022-10-14T08:28:00.935Z,3.65
2022-10-14T08:29:06.375Z,2.83
2022-10-14T08:30:11.385Z,3.60
2022-10-14T08:31:14.975Z,2.75
2022-10-14T08:32:17.761Z,3.12
2022-10-14T08:33:20.583Z,3.28
2022-10-14T08:34:24.803Z,2.92
2022-10-14T08:35:27.533Z,3.50
2022-10-14T08:36:30.450Z,3.25
2022-10-14T08:37:33.996Z,3.37
2022-10-14T08:38:36.947Z,3.47
2022-10-14T08:39:39.588Z,3.47
2022-10-14T08:41:06.280Z,3.25
2022-10-14T08:42:33.679Z,3.30
2022-10-14T08:43:54.752Z,3.40
2022-10-14T08:45:09.002Z,3.83
2022-10-14T08:46:23.628Z,2.65
2022-10-14T08:47:35.087Z,3.42
2022-10-14T08:48:38.768Z,3.30
2022-10-14T08:50:07.449Z,3.50
2022-10-14T08:51:15.203Z,4.37
2022-10-14T08:52:36.492Z,2.80
2022-10-14T08:53:50.812Z,3.55
2022-10-14T08:55:01.073Z,3.33
2022-10-14T08:56:03.830Z,2.62
2022-10-14T08:57:21.035Z,2.87
2022-10-14T08:59:29.747Z,2.97
2022-10-14T09:00:33.683Z,3.70
2022-10-14T09:01:48.322Z,2.80
2022-10-14T09:02:52.040Z,3.55
2022-10-14T09:04:03.876Z,4.10
2022-10-14T09:05:07.267Z,3.42
2022-10-14T09:06:19.810Z,3.72
2022-10-14T09:07:22.847Z,3.25
2022-10-14T09:08:32.793Z,3.28
2022-10-14T09:09:45.511Z,4.20
2022-10-14T09:10:48.331Z,3.40
2022-10-14T09:12:05.253Z,3.67
2022-10-14T09:13:18.563Z,3.20
2022-10-14T09:14:25.189Z,3.30
2022-10-14T09:15:41.377Z,3.62
2022-10-14T09:16:51.764Z,3.85
2022-10-14T09:18:30.814Z,3.60
2022-10-14T09:19:47.248Z,2.83
2022-10-14T09:20:50.249Z,3.85
2022-10-14T09:21:56.056Z,3.80
2022-10-14T09:23:04.597Z,3.75
2022-10-14T09:24:14.794Z,2.87
2022-10-14T09:25:18.147Z,3.22
2022-10-14T09:26:20.786Z,3.33
2022-10-14T09:27:23.938Z,3.42
2022-10-14T09:28:40.489Z,3.28
2022-10-14T09:29:51.263Z,3.50
2022-10-14T09:30:53.890Z,3.50
2022-10-14T09:32:03.866Z,3.60
2022-10-14T09:33:09.596Z,3.80
2022-10-14T09:34:20.248Z,3.72
2022-10-14T09:35:35.777Z,3.37
2022-10-14T09:36:38.364Z,3.87
2022-10-14T09:37:41.034Z,3.97
2022-10-14T09:38:46.435Z,3.10
2022-10-14T09:39:57.172Z,3.47
2022-10-14T09:41:00.432Z,3.90
2022-10-14T09:42:03.263Z,3.10
2022-10-14T09:43:08.964Z,3.45
2022-10-14T09:44:14.426Z,3.80
2022-10-14T09:45:22.884Z,3.67
2022-10-14T09:46:25.685Z,3.60
2022-10-14T09:47:29.403Z,3.35
2022-10-14T09:48:32.608Z,3.37
2022-10-14T09:49:45.920Z,3.37
2022-10-14T09:50:57.015Z,2.90
2022-10-14T09:52:03.105Z,3.90
2022-10-14T09:53:15.826Z,3.75
2022-10-14T09:54:27.790Z,2.72
2022-10-14T09:55:31.634Z,2.70
2022-10-14T09:56:41.956Z,3.20
2022-10-14T09:57:45.976Z,2.72
2022-10-14T09:58:56.584Z,2.60
2022-10-14T10:01:04.518Z,3.70
2022-10-14T10:02:22.339Z,3.22
2022-10-14T10:03:35.784Z,3.25
2022-10-14T10:04:47.685Z,3.05
2022-10-14T10:05:59.909Z,3.92
2022-10-14T10:07:06.718Z,3.20
2022-10-14T10:08:18.994Z,2.75
2022-10-14T10:09:22.233Z,3.20
2022-10-14T10:10:24.888Z,2.83
2022-10-14T10:11:38.427Z,3.30
2022-10-14T10:12:46.822Z,3.42
2022-10-14T10:13:49.659Z,3.00
2022-10-14T10:15:20.314Z,2.65
2022-10-14T10:17:40.759Z,3.17
2022-10-14T10:18:43.336Z,3.08
2022-10-14T10:19:53.386Z,3.17
2022-10-14T10:21:18.092Z,3.35
2022-10-14T10:22:27.134Z,2.75
2022-10-14T10:23:30.462Z,3.97
2022-10-14T10:24:33.153Z,2.97
2022-10-14T10:25:35.742Z,3.12
2022-10-14T10:26:38.386Z,3.35
2022-10-14T10:27:45.866Z,2.90
2022-10-14T10:28:50.349Z,2.62
2022-10-14T10:29:56.395Z,2.17
2022-10-14T10:31:24.186Z,1.90
2022-10-14T10:33:00.196Z,2.95
2022-10-14T10:34:30.154Z,2.20
2022-10-14T10:35:55.307Z,2.42
2022-10-14T10:37:16.193Z,2.42
2022-10-14T10:38:31.252Z,2.65
2022-10-14T10:39:55.613Z,2.55
2022-10-14T10:41:22.078Z,3.20
2022-10-14T10:42:39.589Z,3.12
2022-10-14T10:43:54.393Z,3.20
2022-10-14T10:45:16.217Z,2.90
2022-10-14T10:46:21.614Z,2.75
2022-10-14T10:47:45.932Z,3.28
2022-10-14T10:48:56.894Z,2.85
2022-10-14T10:50:11.566Z,2.72
2022-10-14T10:51:32.253Z,3.22
2022-10-14T10:53:04.406Z,3.33
2022-10-14T10:54:16.110Z,3.47
2022-10-14T10:55:40.310Z,3.30
2022-10-14T10:56:53.043Z,3.42
2022-10-14T10:58:14.413Z,4.07
2022-10-14T10:59:40.395Z,3.90
2022-10-14T11:00:57.713Z,3.40
2022-10-14T11:02:23.444Z,3.22
2022-10-14T11:03:43.050Z,3.22
2022-10-14T11:05:10.722Z,3.28
2022-10-14T11:06:52.694Z,4.18
2022-10-14T11:09:21.817Z,4.28
2022-10-14T11:11:00.036Z,3.55
2022-10-14T11:12:24.293Z,3.58
2022-10-14T11:13:37.190Z,4.07
2022-10-14T11:16:44.559Z,3.67
2022-10-14T11:18:04.163Z,3.65
2022-10-14T11:19:30.634Z,3.53
2022-10-14T11:20:50.873Z,3.37
2022-10-14T11:22:13.779Z,3.22
2022-10-14T11:23:59.865Z,4.28
2022-10-14T11:25:26.306Z,3.25
2022-10-14T11:26:45.641Z,3.75
2022-10-14T11:28:00.881Z,3.37
2022-10-14T11:29:22.435Z,3.15
2022-10-14T11:31:12.259Z,3.08
2022-10-14T11:32:36.391Z,3.10
2022-10-14T11:33:54.700Z,3.28
2022-10-14T11:35:23.332Z,3.90
2022-10-14T11:37:03.087Z,3.37
2022-10-14T11:38:19.300Z,3.42
2022-10-14T11:39:24.578Z,3.90
2022-10-14T11:40:38.535Z,3.20
2022-10-14T11:41:46.879Z,4.12
2022-10-14T11:43:07.850Z,4.55
2022-10-14T11:44:29.349Z,3.70
2022-10-14T11:45:44.030Z,3.70
2022-10-14T11:46:54.822Z,4.00
2022-10-14T11:48:09.968Z,3.50
2022-10-14T11:49:24.639Z,4.47
2022-10-14T11:50:36.523Z,3.75
2022-10-14T11:51:56.075Z,4.12
2022-10-14T11:53:10.088Z,3.58
2022-10-14T11:54:29.487Z,4.50
2022-10-14T11:55:41.226Z,4.20
2022-10-14T11:57:07.431Z,4.30
2022-10-14T11:58:26.107Z,4.00
2022-10-14T11:59:42.148Z,3.60
2022-10-14T12:00:47.562Z,4.50
2022-10-14T12:01:55.819Z,4.00
2022-10-14T12:03:21.985Z,4.55
2022-10-14T12:04:41.023Z,4.05
2022-10-14T12:05:52.952Z,4.12
2022-10-14T12:07:23.018Z,3.78
2022-10-14T12:08:44.083Z,4.93
2022-10-14T12:09:59.077Z,4.12
2022-10-14T12:11:11.866Z,4.47
2022-10-14T12:12:17.975Z,4.65
2022-10-14T12:13:26.555Z,4.75
2022-10-14T12:14:40.289Z,5.22
2022-10-14T12:15:49.538Z,4.78
2022-10-14T12:16:53.371Z,4.45
2022-10-14T12:18:02.710Z,4.87
2022-10-14T12:19:10.499Z,4.60
2022-10-14T12:20:40.302Z,3.97
2022-10-14T12:21:59.090Z,4.67
2022-10-14T12:23:04.203Z,4.40
2022-10-14T12:24:35.343Z,4.70
2022-10-14T12:25:46.646Z,4.07
2022-10-14T12:27:02.170Z,5.20
2022-10-14T12:28:05.580Z,3.90
2022-10-14T12:29:17.643Z,4.15
2022-10-14T12:30:35.640Z,6.03
2022-10-14T12:31:39.844Z,4.15
2022-10-14T12:33:07.210Z,5.05
2022-10-14T12:34:15.659Z,4.00
2022-10-14T12:36:12.193Z,4.57
2022-10-14T12:37:32.712Z,4.40
2022-10-14T12:38:36.470Z,4.25
2022-10-14T12:39:42.571Z,4.03
2022-10-14T12:40:48.987Z,4.40
2022-10-14T12:42:06.245Z,4.70
2022-10-14T12:43:19.506Z,4.68
2022-10-14T12:44:32.301Z,4.55
2022-10-14T12:45:36.109Z,5.40
2022-10-14T12:46:44.289Z,4.10
2022-10-14T12:47:47.212Z,5.12
2022-10-14T12:48:52.272Z,4.40
2022-10-14T12:49:58.029Z,4.40
2022-10-14T12:51:14.756Z,4.82
2022-10-14T12:52:31.354Z,4.60
2022-10-14T12:53:35.554Z,4.62
2022-10-14T12:54:46.176Z,4.95
2022-10-14T12:55:58.684Z,4.87
2022-10-14T12:57:15.712Z,4.37
2022-10-14T12:58:28.020Z,4.45
2022-10-14T12:59:36.676Z,5.05
2022-10-14T13:00:43.712Z,4.57
2022-10-14T13:01:46.540Z,4.80
2022-10-14T13:02:56.875Z,5.43
2022-10-14T13:05:40.934Z,5.15
2022-10-14T13:06:44.425Z,4.97
2022-10-14T13:07:50.543Z,4.97
2022-10-14T13:09:12.339Z,5.43
2022-10-14T13:10:45.198Z,4.82
2022-10-14T13:11:51.827Z,4.90
2022-10-14T13:12:54.510Z,5.05
2022-10-14T13:14:01.662Z,5.20
2022-10-14T13:15:34.843Z,5.30
2022-10-14T13:16:37.561Z,4.53
2022-10-14T13:17:47.592Z,5.32
2022-10-14T13:18:50.569Z,5.15
2022-10-14T13:19:53.247Z,4.85
2022-10-14T13:20:55.907Z,5.18
2022-10-14T13:21:59.366Z,5.43
2022-10-14T13:23:31.392Z,5.03
2022-10-14T13:24:43.057Z,4.43
2022-10-14T13:25:48.771Z,5.45
2022-10-14T13:26:54.219Z,5.87
2022-10-14T13:28:13.398Z,4.80
2022-10-14T13:29:34.173Z,4.62
2022-10-14T13:31:00.113Z,4.68
2022-10-14T13:32:28.574Z,4.60
2022-10-14T13:33:45.076Z,5.57
2022-10-14T13:35:02.317Z,4.87
2022-10-14T13:36:18.437Z,5.55
2022-10-14T13:37:33.753Z,5.30
2022-10-14T13:38:46.172Z,4.72
2022-10-14T13:39:49.052Z,5.80
2022-10-14T13:40:58.095Z,4.80
2022-10-14T13:42:01.979Z,5.05
2022-10-14T13:43:18.464Z,4.57
2022-10-14T13:44:24.087Z,4.50
2022-10-14T13:45:47.145Z,5.60
2022-10-14T13:46:50.445Z,4.87
2022-10-14T13:47:53.668Z,4.30
2022-10-14T13:49:02.805Z,5.80
2022-10-14T13:50:06.519Z,5.40
2022-10-14T13:51:31.567Z,5.10
2022-10-14T13:52:38.021Z,5.53
2022-10-14T13:53:55.225Z,5.03
2022-10-14T13:55:19.945Z,4.95
2022-10-14T13:56:28.967Z,4.35
2022-10-14T13:57:59.993Z,5.15
2022-10-14T13:58:55.873Z,4.60
2022-10-14T14:01:25.163Z,4.55
2022-10-14T14:02:29.171Z,4.35
2022-10-14T14:03:42.016Z,4.62
2022-10-14T14:04:52.564Z,5.57
2022-10-14T14:07:27.476Z,4.70
2022-10-14T14:08:40.366Z,4.00
2022-10-14T14:09:51.421Z,4.30
2022-10-14T14:11:15.632Z,4.25
2022-10-14T14:12:21.950Z,5.10
2022-10-14T14:13:25.345Z,5.37
2022-10-14T14:14:36.136Z,4.78
2022-10-14T14:15:40.580Z,5.80
2022-10-14T14:16:54.459Z,5.47
2022-10-14T14:17:57.300Z,5.75
2022-10-14T14:19:15.353Z,5.10
2022-10-14T14:20:24.799Z,5.03
2022-10-14T14:21:28.545Z,4.93
2022-10-14T14:22:31.875Z,5.28
2022-10-14T14:23:35.021Z,5.97
2022-10-14T14:24:37.869Z,5.50
2022-10-14T14:26:01.102Z,5.20
2022-10-14T14:27:04.721Z,5.00
2022-10-14T14:28:15.172Z,5.07
2022-10-14T14:30:54.840Z,4.68
2022-10-14T14:32:08.231Z,5.00
2022-10-14T14:33:15.717Z,4.20
2022-10-14T14:34:21.303Z,5.03
2022-10-14T14:35:24.080Z,4.75
2022-10-14T14:36:50.013Z,5.43
2022-10-14T14:37:56.239Z,4.50
2022-10-14T14:39:02.078Z,4.28
2022-10-14T14:40:25.055Z,4.47
2022-10-14T14:41:30.427Z,4.90
2022-10-14T14:42:39.778Z,4.32
2022-10-14T14:43:47.400Z,4.68
2022-10-14T14:45:01.530Z,5.43
2022-10-14T14:46:05.734Z,4.78
2022-10-14T14:47:10.115Z,5.30
2022-10-14T14:48:15.851Z,4.10
2022-10-14T14:49:25.873Z,4.37
2022-10-14T14:50:38.158Z,4.82
2022-10-14T14:51:42.067Z,5.00
2022-10-14T14:52:47.051Z,4.07
2022-10-14T14:53:55.322Z,4.85
2022-10-14T14:54:57.968Z,4.93
2022-10-14T14:56:09.144Z,5.35
2022-10-14T14:57:20.270Z,4.62
2022-10-14T14:58:50.586Z,5.22
2022-10-14T15:00:01.070Z,3.95
2022-10-14T15:01:05.815Z,5.25
2022-10-14T15:02:19.115Z,4.95
2022-10-14T15:03:27.325Z,5.22
2022-10-14T15:04:34.197Z,4.87
2022-10-14T15:05:36.761Z,4.97
2022-10-14T15:06:39.419Z,5.32
2022-10-14T15:07:54.353Z,4.20
2022-10-14T15:09:01.244Z,5.00
2022-10-14T15:10:07.858Z,4.90
2022-10-14T15:12:43.467Z,5.03
2022-10-14T15:13:55.391Z,4.60
2022-10-14T15:14:59.864Z,4.97
2022-10-14T15:16:02.657Z,4.50
2022-10-14T15:17:06.167Z,4.47
2022-10-14T15:18:14.947Z,4.37
2022-10-14T15:19:20.728Z,5.50
2022-10-14T15:20:36.499Z,4.45
2022-10-14T15:21:39.141Z,4.05